Time;durP1;ratioP1;P1;durP2;ratioP2;P2;SDS_P1;SDS_P2;PMS_P1;PMS_P2;Temp;Humidity;BMP_temperature;BMP_pressure;BME280_temperature;BME280_humidity;BME280_pressure;Samples;Min_cycle;Max_cycle;Signal;HPM_P1;HPM_P2
2022/06/04 00:00:03;;;;;;;18.77;10.52;;;11.10;99.90;;;;;;6249538;28;20063;-60
2022/06/04 00:03:05;;;;;;;17.40;11.05;;;11.10;99.90;;;;;;6241499;28;20056;-60
2022/06/04 00:06:07;;;;;;;26.15;11.70;;;11.00;99.90;;;;;;6225060;28;20487;-60
2022/06/04 00:09:12;;;;;;;19.30;11.50;;;11.00;99.90;;;;;;6224183;28;20467;-60
2022/06/04 00:15:35;;;;;;;21.95;11.90;;;10.90;99.90;;;;;;6225051;28;20062;-59
2022/06/04 00:18:37;;;;;;;22.08;12.40;;;10.90;99.90;;;;;;6223832;28;20057;-60
2022/06/04 00:21:39;;;;;;;19.88;12.77;;;10.90;99.90;;;;;;6242755;28;20046;-59
2022/06/04 00:24:42;;;;;;;18.50;12.25;;;10.90;99.90;;;;;;6249266;28;20505;-60
2022/06/04 00:27:44;;;;;;;24.90;12.32;;;10.80;99.90;;;;;;6248148;28;20058;-60
2022/06/04 00:30:48;;;;;;;24.52;12.93;;;10.80;99.90;;;;;;6249164;28;20128;-60
2022/06/04 00:33:50;;;;;;;24.10;12.23;;;10.80;99.90;;;;;;6248098;28;20053;-60
2022/06/04 00:36:52;;;;;;;27.00;12.35;;;10.80;99.90;;;;;;6247634;28;20045;-60
2022/06/04 00:39:54;;;;;;;20.15;11.80;;;10.80;99.90;;;;;;6248828;28;20486;-59
2022/06/04 00:42:56;;;;;;;21.83;11.90;;;10.80;99.90;;;;;;6248178;28;20395;-59
2022/06/04 00:46:31;;;;;;;23.45;12.45;;;10.80;99.90;;;;;;6248709;28;20077;-59
2022/06/04 00:49:35;;;;;;;25.63;12.32;;;10.80;99.90;;;;;;6244346;28;20063;-60
2022/06/04 00:52:38;;;;;;;18.42;11.98;;;10.80;99.90;;;;;;6248412;28;20053;-61
2022/06/04 00:55:47;;;;;;;23.25;12.25;;;10.80;99.90;;;;;;6226021;28;20046;-60
2022/06/04 00:59:07;;;;;;;26.40;12.35;;;10.80;99.90;;;;;;6223755;28;20053;-59
2022/06/04 01:02:22;;;;;;;24.33;12.38;;;10.80;99.90;;;;;;6222868;28;20046;-60
2022/06/04 01:05:34;;;;;;;20.65;12.63;;;10.80;99.90;;;;;;6222642;28;20054;-60
2022/06/04 01:09:09;;;;;;;19.38;12.63;;;10.80;99.90;;;;;;6234366;28;20064;-60
2022/06/04 01:12:26;;;;;;;24.65;13.20;;;10.80;99.90;;;;;;6230678;28;20125;-60
2022/06/04 01:15:43;;;;;;;22.92;13.07;;;10.70;99.90;;;;;;6223531;28;20132;-59
2022/06/04 01:18:56;;;;;;;21.80;12.27;;;10.80;99.90;;;;;;6222093;28;20046;-60
2022/06/04 01:22:17;;;;;;;22.40;12.77;;;10.80;99.90;;;;;;6223839;28;20058;-60
2022/06/04 01:25:38;;;;;;;23.23;12.85;;;10.80;99.90;;;;;;6222123;28;20057;-60
2022/06/04 01:28:45;;;;;;;26.23;11.55;;;10.80;99.90;;;;;;6222739;28;20406;-60
2022/06/04 01:31:51;;;;;;;20.83;12.52;;;10.80;99.90;;;;;;6222059;28;20490;-60
2022/06/04 01:35:07;;;;;;;25.08;13.18;;;10.80;99.90;;;;;;6222384;28;20505;-60
2022/06/04 01:38:15;;;;;;;24.00;12.88;;;10.80;99.90;;;;;;6221878;28;20511;-59
2022/06/04 01:41:22;;;;;;;22.83;12.85;;;10.80;99.90;;;;;;6221806;28;20054;-58
2022/06/04 01:44:30;;;;;;;24.30;13.32;;;10.80;99.90;;;;;;6225807;28;20057;-58
2022/06/04 01:47:33;;;;;;;23.55;13.07;;;10.80;99.90;;;;;;6246876;28;20056;-58
2022/06/04 01:50:41;;;;;;;23.98;13.98;;;10.80;99.90;;;;;;6240638;28;20049;-58
2022/06/04 01:53:45;;;;;;;23.08;13.20;;;10.80;99.90;;;;;;6222922;28;20069;-58
2022/06/04 01:56:51;;;;;;;26.80;11.88;;;10.70;99.90;;;;;;6222502;28;20050;-59
2022/06/04 01:59:58;;;;;;;19.60;12.25;;;10.70;99.90;;;;;;6222688;28;20060;-59
2022/06/04 02:03:06;;;;;;;19.75;11.68;;;10.70;99.90;;;;;;6222926;28;20410;-59
2022/06/04 02:06:12;;;;;;;19.20;11.23;;;10.70;99.90;;;;;;6222744;28;20042;-59
2022/06/04 02:09:17;;;;;;;23.45;12.57;;;10.60;99.90;;;;;;6222552;28;20050;-59
2022/06/04 02:12:20;;;;;;;19.67;12.20;;;10.60;99.90;;;;;;6221172;28;20054;-59
2022/06/04 02:15:28;;;;;;;18.33;11.88;;;10.60;99.90;;;;;;6223011;28;20046;-59
2022/06/04 02:18:30;;;;;;;20.63;11.45;;;10.60;99.90;;;;;;6234545;28;20046;-59
2022/06/04 02:21:33;;;;;;;19.92;12.02;;;10.50;99.90;;;;;;6241458;28;20084;-59
2022/06/04 02:24:35;;;;;;;19.17;11.07;;;10.50;99.90;;;;;;6245635;28;20057;-59
2022/06/04 02:27:38;;;;;;;20.05;11.10;;;10.50;99.90;;;;;;6246388;28;20506;-59
2022/06/04 02:30:52;;;;;;;21.48;11.35;;;10.50;99.90;;;;;;6247023;28;20049;-59
2022/06/04 02:34:00;;;;;;;18.35;11.05;;;10.40;99.90;;;;;;6246886;28;20061;-59
2022/06/04 02:37:09;;;;;;;14.85;10.70;;;10.50;99.90;;;;;;6230380;28;20054;-59
2022/06/04 02:40:16;;;;;;;19.88;10.55;;;10.40;99.90;;;;;;6222040;28;20132;-59
2022/06/04 02:43:26;;;;;;;16.90;10.32;;;10.40;99.90;;;;;;6221316;28;20053;-59
2022/06/04 02:46:33;;;;;;;17.13;10.00;;;10.40;99.90;;;;;;6221100;28;20410;-58
2022/06/04 02:49:39;;;;;;;15.05;9.48;;;10.40;99.90;;;;;;6223040;28;20049;-59
2022/06/04 02:52:42;;;;;;;17.42;9.93;;;10.40;99.90;;;;;;6244147;28;20502;-59
2022/06/04 02:55:48;;;;;;;16.77;9.55;;;10.40;99.90;;;;;;6246483;28;20056;-59
2022/06/04 02:58:55;;;;;;;16.80;9.48;;;10.40;99.90;;;;;;6247635;28;20420;-58
2022/06/04 03:02:01;;;;;;;16.17;9.07;;;10.30;99.90;;;;;;6251557;28;20060;-59
2022/06/04 03:05:11;;;;;;;16.05;8.82;;;10.30;99.90;;;;;;6250120;28;20061;-59
2022/06/04 03:08:12;;;;;;;14.00;8.60;;;10.30;99.90;;;;;;6251206;28;20056;-58
2022/06/04 03:11:14;;;;;;;16.55;8.73;;;10.30;99.90;;;;;;6250319;28;20045;-58
2022/06/04 03:14:18;;;;;;;12.85;8.77;;;10.30;99.90;;;;;;6250008;28;20053;-58
2022/06/04 03:17:21;;;;;;;12.32;8.23;;;10.30;99.90;;;;;;6249535;28;20045;-59
2022/06/04 03:20:26;;;;;;;14.02;8.27;;;10.20;99.90;;;;;;6251178;28;20046;-58
2022/06/04 03:23:28;;;;;;;16.90;8.77;;;10.30;99.90;;;;;;6249707;28;20413;-58
2022/06/04 03:26:30;;;;;;;16.33;8.77;;;10.20;99.90;;;;;;6248833;28;20053;-58
2022/06/04 03:29:32;;;;;;;16.80;9.02;;;10.20;99.90;;;;;;6250382;28;20053;-59
2022/06/04 03:32:36;;;;;;;14.18;8.65;;;10.20;99.90;;;;;;6250264;28;20061;-59
2022/06/04 03:35:38;;;;;;;;;;;10.30;99.90;;;;;;6251432;28;20129;-59
2022/06/04 03:38:40;;;;;;;15.63;8.52;;;10.30;99.90;;;;;;6250154;28;19928;-59
2022/06/04 03:41:42;;;;;;;15.98;8.88;;;10.30;99.90;;;;;;6249503;28;20061;-58
2022/06/04 03:44:47;;;;;;;17.50;9.23;;;10.30;99.90;;;;;;6247022;28;20060;-58
2022/06/04 03:47:51;;;;;;;19.33;8.57;;;10.30;99.90;;;;;;6250468;28;20068;-59
2022/06/04 03:50:52;;;;;;;16.17;7.82;;;10.40;99.90;;;;;;6238086;28;20046;-58
2022/06/04 03:53:55;;;;;;;14.25;8.20;;;10.40;99.90;;;;;;6225276;28;20054;-59
2022/06/04 04:00:17;;;;;;;14.00;7.90;;;10.50;99.90;;;;;;6225455;28;20076;-59
2022/06/04 04:03:20;;;;;;;13.90;8.30;;;10.50;99.90;;;;;;6225222;28;20418;-59
2022/06/04 04:06:24;;;;;;;13.30;7.72;;;10.60;99.90;;;;;;6224355;28;20482;-58
2022/06/04 04:09:26;;;;;;;;;;;10.60;99.90;;;;;;6226629;28;20086;-58
2022/06/04 04:12:28;;;;;;;12.73;7.00;;;10.60;99.90;;;;;;6224278;28;19929;-58
2022/06/04 04:15:30;;;;;;;10.23;7.50;;;10.70;99.90;;;;;;6224342;28;20061;-59
2022/06/04 04:18:34;;;;;;;13.35;7.60;;;10.70;99.90;;;;;;6247264;28;20056;-58
2022/06/04 04:21:41;;;;;;;12.30;7.55;;;10.80;99.90;;;;;;6232686;28;20117;-58
2022/06/04 04:24:43;;;;;;;9.20;7.70;;;10.80;99.90;;;;;;6225070;28;20054;-59
2022/06/04 04:27:45;;;;;;;16.25;7.05;;;10.80;99.90;;;;;;6223878;28;20525;-58
2022/06/04 04:30:47;;;;;;;12.00;7.18;;;10.90;99.90;;;;;;6224870;28;20053;-58
2022/06/04 04:33:50;;;;;;;11.02;7.18;;;11.00;99.90;;;;;;6224746;28;20061;-58
2022/06/04 04:36:52;;;;;;;10.27;6.85;;;11.00;99.90;;;;;;6225023;28;20053;-58
2022/06/04 04:39:54;;;;;;;10.85;7.38;;;11.10;99.90;;;;;;6224586;28;20061;-58
2022/06/04 04:42:56;;;;;;;12.77;7.22;;;11.20;99.90;;;;;;6223346;28;20129;-58
2022/06/04 04:46:02;;;;;;;11.80;7.38;;;11.20;99.90;;;;;;6238820;28;20045;-58
2022/06/04 04:49:06;;;;;;;13.98;7.70;;;11.20;99.90;;;;;;6247486;28;20058;-58
2022/06/04 04:52:08;;;;;;;11.50;7.38;;;11.20;99.90;;;;;;6237935;28;20054;-58
2022/06/04 04:55:10;;;;;;;11.48;7.32;;;11.30;99.90;;;;;;6223193;28;20426;-58
2022/06/04 04:58:12;;;;;;;12.02;6.53;;;11.30;99.90;;;;;;6223710;28;20398;-58
2022/06/04 05:01:15;;;;;;;8.48;6.68;;;11.40;99.90;;;;;;6223911;28;20449;-58
2022/06/04 05:04:19;;;;;;;11.05;7.00;;;11.40;99.90;;;;;;6222802;28;20143;-58
2022/06/04 05:07:21;;;;;;;10.73;6.55;;;11.80;99.90;;;;;;6222928;28;20504;-58
2022/06/04 05:10:23;;;;;;;13.10;7.05;;;12.30;99.90;;;;;;6242587;28;20042;-58
2022/06/04 05:13:24;;;;;;;11.32;6.75;;;12.30;99.90;;;;;;6248029;28;20053;-58
2022/06/04 05:16:29;;;;;;;10.07;6.85;;;12.30;99.90;;;;;;6248068;28;20045;-58
2022/06/04 05:19:32;;;;;;;9.25;7.18;;;12.70;99.90;;;;;;6247116;28;20494;-58
2022/06/04 05:22:34;;;;;;;10.13;7.78;;;12.60;99.90;;;;;;6247241;28;20057;-58
2022/06/04 05:25:37;;;;;;;9.90;6.70;;;12.40;99.90;;;;;;6246182;28;20148;-58
2022/06/04 05:28:39;;;;;;;9.80;6.82;;;12.20;99.90;;;;;;6246848;28;20050;-59
2022/06/04 05:31:42;;;;;;;12.00;6.90;;;12.20;99.90;;;;;;6246860;28;20049;-58
2022/06/04 05:34:45;;;;;;;10.38;7.13;;;12.20;99.90;;;;;;6246272;28;20057;-58
2022/06/04 05:37:47;;;;;;;10.82;6.10;;;12.20;99.90;;;;;;6248031;28;20116;-58
2022/06/04 05:40:49;;;;;;;11.07;6.82;;;12.20;99.90;;;;;;6246218;28;20049;-58
2022/06/04 05:43:51;;;;;;;9.40;6.75;;;12.30;99.90;;;;;;6246340;28;20056;-58
2022/06/04 05:46:53;;;;;;;9.43;6.68;;;12.50;99.90;;;;;;6247439;28;20049;-58
2022/06/04 05:49:56;;;;;;;9.23;6.50;;;12.80;99.90;;;;;;6245868;28;20045;-57
2022/06/04 05:52:58;;;;;;;12.23;7.10;;;12.70;99.90;;;;;;6231315;28;20054;-58
2022/06/04 05:56:00;;;;;;;10.20;6.82;;;12.60;99.90;;;;;;6221196;28;20050;-58
2022/06/04 05:59:04;;;;;;;10.32;7.05;;;12.60;99.90;;;;;;6222888;28;20045;-58
2022/06/04 06:02:06;;;;;;;11.20;7.28;;;12.60;99.90;;;;;;6247355;28;20054;-58
2022/06/04 06:05:10;;;;;;;12.27;7.78;;;12.70;99.90;;;;;;6247384;28;20046;-58
2022/06/04 06:08:13;;;;;;;12.23;7.45;;;12.70;99.90;;;;;;6247390;28;20046;-59
2022/06/04 06:11:17;;;;;;;10.32;7.05;;;13.10;99.90;;;;;;6245973;28;20049;-58
2022/06/04 06:14:20;;;;;;;9.55;6.93;;;13.30;99.90;;;;;;6233369;28;20065;-58
2022/06/04 06:17:21;;;;;;;13.40;7.55;;;13.40;99.90;;;;;;6222847;28;20522;-59
2022/06/04 06:20:25;;;;;;;8.85;6.95;;;13.30;99.90;;;;;;6222426;28;20046;-58
2022/06/04 06:23:27;;;;;;;8.77;6.22;;;13.20;99.90;;;;;;6230329;28;20042;-58
2022/06/04 06:26:35;;;;;;;9.20;6.57;;;13.20;99.90;;;;;;6247078;28;20052;-58
2022/06/04 06:29:38;;;;;;;8.35;6.57;;;13.20;99.90;;;;;;6246373;28;20095;-58
2022/06/04 06:32:40;;;;;;;8.82;6.05;;;13.30;99.90;;;;;;6247100;28;20061;-58
2022/06/04 06:35:44;;;;;;;10.35;7.28;;;13.30;99.90;;;;;;6249659;28;20150;-58
2022/06/04 06:38:46;;;;;;;11.07;6.82;;;13.40;99.90;;;;;;6251831;28;20568;-58
2022/06/04 06:41:48;;;;;;;7.43;5.93;;;13.40;99.90;;;;;;6251818;28;20072;-58
2022/06/04 06:44:51;;;;;;;9.43;6.70;;;13.40;99.90;;;;;;6250478;28;20057;-59
2022/06/04 06:47:53;;;;;;;10.00;6.35;;;13.50;99.90;;;;;;6251666;28;20505;-58
2022/06/04 06:50:56;;;;;;;9.35;6.47;;;13.50;99.90;;;;;;6250509;28;20079;-58
2022/06/04 06:53:59;;;;;;;9.57;7.25;;;13.50;99.90;;;;;;6249987;28;20058;-58
2022/06/04 06:57:01;;;;;;;8.82;6.25;;;13.50;99.90;;;;;;6251311;28;20401;-58
2022/06/04 07:00:05;;;;;;;7.82;5.78;;;13.40;99.90;;;;;;6250123;28;20054;-59
2022/06/04 07:03:07;;;;;;;11.05;6.32;;;13.50;99.90;;;;;;6251188;28;20497;-59
2022/06/04 07:06:12;;;;;;;9.10;6.47;;;13.60;99.90;;;;;;6251222;28;20410;-59
2022/06/04 07:09:20;;;;;;;9.07;6.20;;;14.00;99.90;;;;;;6238853;28;20046;-59
2022/06/04 07:12:22;;;;;;;10.63;6.15;;;15.10;99.90;;;;;;6236775;28;20077;-58
2022/06/04 07:15:24;;;;;;;12.57;5.70;;;15.60;99.90;;;;;;6226706;28;20058;-59
2022/06/04 07:18:26;;;;;;;8.15;6.13;;;15.90;99.90;;;;;;6226712;28;20054;-59
2022/06/04 07:21:30;;;;;;;8.70;5.75;;;16.00;99.90;;;;;;6226037;28;20042;-58
2022/06/04 07:24:32;;;;;;;7.82;5.82;;;16.30;99.90;;;;;;6241416;28;20054;-59
2022/06/04 07:27:34;;;;;;;7.65;6.07;;;16.70;99.90;;;;;;6250314;28;20477;-59
2022/06/04 07:30:36;;;;;;;6.95;5.70;;;17.00;99.90;;;;;;6249747;28;20056;-59
2022/06/04 07:33:38;;;;;;;7.13;5.70;;;17.30;99.90;;;;;;6250444;28;20061;-59
2022/06/04 07:36:43;;;;;;;10.88;6.13;;;17.50;99.90;;;;;;6249478;28;20064;-59
2022/06/04 07:39:45;;;;;;;7.50;5.60;;;17.40;99.90;;;;;;6250454;28;20415;-59
2022/06/04 07:42:47;;;;;;;6.95;5.47;;;17.40;99.90;;;;;;6248442;28;20417;-59
2022/06/04 07:45:48;;;;;;;7.22;5.40;;;17.00;99.90;;;;;;6248973;28;20053;-59
2022/06/04 07:48:51;;;;;;;11.65;5.90;;;16.60;99.90;;;;;;6249268;28;20505;-58
2022/06/04 07:51:54;;;;;;;8.15;6.05;;;16.40;99.90;;;;;;6250380;28;20048;-59
2022/06/04 07:54:56;;;;;;;10.23;5.90;;;16.30;99.90;;;;;;6248577;28;20402;-58
2022/06/04 07:57:58;;;;;;;7.07;5.80;;;16.50;99.90;;;;;;6249988;28;20088;-58
2022/06/04 08:01:01;;;;;;;8.45;5.75;;;16.70;99.90;;;;;;6225929;28;20065;-58
2022/06/04 08:04:03;;;;;;;7.85;5.45;;;16.90;99.90;;;;;;6225324;28;20438;-58
2022/06/04 08:07:06;;;;;;;9.73;5.82;;;17.10;99.90;;;;;;6224220;28;20097;-58
2022/06/04 08:10:10;;;;;;;;;;;16.90;99.90;;;;;;6240197;28;20044;-58
2022/06/04 08:13:13;;;;;;;6.67;5.57;;;16.90;99.90;;;;;;6228453;28;19921;-59
2022/06/04 08:16:15;;;;;;;8.68;5.85;;;16.60;99.90;;;;;;6233606;28;20486;-58
2022/06/04 08:19:17;;;;;;;9.07;5.90;;;16.60;99.90;;;;;;6249503;28;20057;-59
2022/06/04 08:22:20;;;;;;;6.82;5.68;;;16.70;99.90;;;;;;6249857;28;20052;-59
2022/06/04 08:25:22;;;;;;;;;;;16.90;99.90;;;;;;6225829;28;20050;-59
2022/06/04 08:28:24;;;;;;;8.98;5.80;;;16.50;99.90;;;;;;6224879;28;19921;-59
2022/06/04 08:31:26;;;;;;;6.78;5.10;;;16.30;99.90;;;;;;6224923;28;20071;-59
2022/06/04 08:34:28;;;;;;;6.60;5.88;;;16.60;99.90;;;;;;6242860;28;20481;-59
2022/06/04 08:37:31;;;;;;;6.93;5.28;;;17.10;99.90;;;;;;6249463;28;20053;-58
2022/06/04 08:40:38;;;;;;;6.00;5.13;;;17.20;99.90;;;;;;6247908;28;20049;-60
2022/06/04 08:43:49;;;;;;;7.63;5.72;;;17.00;99.90;;;;;;6224402;28;20049;-58
2022/06/04 08:46:55;;;;;;;7.53;4.95;;;16.90;99.90;;;;;;6222943;28;20061;-59
2022/06/04 08:50:02;;;;;;;6.40;4.40;;;17.10;99.90;;;;;;6224744;28;20494;-57
2022/06/04 08:53:07;;;;;;;7.20;4.43;;;17.00;99.90;;;;;;6223878;28;20076;-59
2022/06/04 08:59:49;;;;;;;6.88;4.65;;;16.70;99.90;;;;;;6222298;28;20050;-58
2022/06/04 09:03:06;;;;;;;8.45;4.95;;;16.70;99.90;;;;;;6222692;28;20093;-59
2022/06/04 09:06:22;;;;;;;6.40;4.53;;;16.50;99.90;;;;;;6224507;28;20061;-58
2022/06/04 09:09:31;;;;;;;6.22;4.53;;;16.70;99.90;;;;;;6231843;28;20061;-59
2022/06/04 09:12:38;;;;;;;6.78;4.80;;;16.90;99.90;;;;;;6247339;28;20057;-59
2022/06/04 09:15:45;;;;;;;7.85;4.90;;;16.80;99.90;;;;;;6248070;28;20056;-59
2022/06/04 09:18:50;;;;;;;6.18;4.32;;;16.70;99.90;;;;;;6248049;28;20148;-59
2022/06/04 09:21:53;;;;;;;7.85;5.10;;;16.80;99.90;;;;;;6247826;28;20050;-59
2022/06/04 09:24:56;;;;;;;8.37;4.33;;;17.00;99.90;;;;;;6246669;28;20045;-59
2022/06/04 09:28:06;;;;;;;6.53;4.80;;;16.80;99.90;;;;;;6246712;28;20405;-59
2022/06/04 09:31:19;;;;;;;7.55;4.70;;;17.00;99.90;;;;;;6247521;28;20053;-58
2022/06/04 09:34:29;;;;;;;4.80;3.75;;;17.00;99.90;;;;;;6247515;28;20417;-59
2022/06/04 09:37:41;;;;;;;7.63;4.50;;;17.10;99.90;;;;;;6248055;28;20056;-59
2022/06/04 09:40:44;;;;;;;5.32;4.03;;;17.20;99.90;;;;;;6246834;28;20084;-59
2022/06/04 09:43:47;;;;;;;4.68;4.20;;;17.30;99.90;;;;;;6247395;28;20405;-59
2022/06/04 09:46:52;;;;;;;6.85;3.92;;;17.50;99.90;;;;;;6247588;28;20056;-59
2022/06/04 09:49:59;;;;;;;7.85;4.35;;;17.50;99.90;;;;;;6246518;28;20072;-59
2022/06/04 09:53:13;;;;;;;5.38;3.92;;;17.30;99.90;;;;;;6247590;28;20060;-58
2022/06/04 09:56:26;;;;;;;6.40;3.88;;;17.50;99.90;;;;;;6247130;28;20068;-58
2022/06/04 09:59:29;;;;;;;6.17;4.10;;;17.40;99.90;;;;;;6227103;28;20060;-58
2022/06/04 10:02:32;;;;;;;8.00;4.78;;;17.50;99.90;;;;;;6221466;28;20080;-59
2022/06/04 10:05:34;;;;;;;5.68;4.60;;;17.60;99.90;;;;;;6221706;28;20398;-58
2022/06/04 10:11:59;;;;;;;8.05;4.47;;;17.90;99.90;;;;;;6240054;28;20049;-59
2022/06/04 10:15:01;;;;;;;6.47;5.05;;;18.10;99.90;;;;;;6232814;28;20053;-58
2022/06/04 10:18:14;;;;;;;7.72;4.50;;;18.10;99.90;;;;;;6245595;28;20058;-59
2022/06/04 10:21:19;;;;;;;6.63;4.38;;;18.20;99.90;;;;;;6246650;28;20076;-59
2022/06/04 10:24:25;;;;;;;6.88;4.13;;;18.30;99.90;;;;;;6246574;28;20053;-58
2022/06/04 10:27:40;;;;;;;8.07;4.05;;;18.00;99.90;;;;;;6246308;28;20049;-59
2022/06/04 10:30:50;;;;;;;21.10;9.40;;;18.10;99.90;;;;;;6245682;28;20060;-59
2022/06/04 10:33:57;;;;;;;9.88;3.88;;;18.20;99.90;;;;;;6244850;28;20050;-59
2022/06/04 10:37:13;;;;;;;7.38;4.00;;;18.20;99.90;;;;;;6245379;28;20052;-59
2022/06/04 10:40:40;;;;;;;6.25;4.25;;;18.20;99.90;;;;;;6246471;28;20497;-59
2022/06/04 10:44:07;;;;;;;6.32;3.97;;;18.40;99.90;;;;;;6221971;28;20127;-59
2022/06/04 10:47:26;;;;;;;5.28;4.13;;;18.50;99.90;;;;;;6221934;28;20401;-59
2022/06/04 10:54:05;;;;;;;5.25;3.38;;;18.20;99.90;;;;;;6238443;28;20057;-59
2022/06/04 10:57:20;;;;;;;3.33;3.00;;;18.40;99.90;;;;;;6220785;28;20065;-59
2022/06/04 11:00:28;;;;;;;5.88;3.30;;;18.70;99.90;;;;;;6221528;28;20490;-59
2022/06/04 11:03:39;;;;;;;5.18;2.97;;;19.00;99.90;;;;;;6221927;28;20069;-59
2022/06/04 11:06:45;;;;;;;5.35;3.40;;;19.20;99.90;;;;;;6222266;28;20046;-59
2022/06/04 11:09:51;;;;;;;5.10;3.63;;;19.30;99.90;;;;;;6239307;28;20512;-59
2022/06/04 11:13:02;;;;;;;5.63;4.05;;;19.20;99.90;;;;;;6246233;28;20056;-59
2022/06/04 11:16:11;;;;;;;6.10;3.88;;;19.10;99.90;;;;;;6246398;28;20533;-59
2022/06/04 11:19:17;;;;;;;6.43;3.90;;;18.80;99.90;;;;;;6246571;28;20053;-59
2022/06/04 11:22:26;;;;;;;6.43;3.70;;;18.70;99.90;;;;;;6249350;28;20061;-59
2022/06/04 11:25:32;;;;;;;6.05;3.38;;;18.60;99.90;;;;;;6245759;28;20061;-59
2022/06/04 11:28:34;;;;;;;7.10;3.97;;;18.90;99.90;;;;;;6225804;28;20057;-59
2022/06/04 11:31:51;;;;;;;5.68;3.90;;;19.10;99.90;;;;;;6225789;28;20498;-59
2022/06/04 11:35:11;;;;;;;6.97;3.80;;;19.10;99.90;;;;;;6225860;28;20060;-59
2022/06/04 11:38:49;;;;;;;6.63;3.80;;;19.10;99.90;;;;;;6225628;28;20380;-59
2022/06/04 11:41:59;;;;;;;6.28;3.78;;;19.10;99.90;;;;;;6198075;28;20144;-60
2022/06/04 11:45:30;;;;;;;6.82;3.80;;;18.50;99.90;;;;;;6226059;28;20512;-59
2022/06/04 11:48:45;;;;;;;6.60;3.80;;;18.50;99.90;;;;;;6225414;28;20082;-59
2022/06/04 11:52:18;;;;;;;6.20;3.97;;;18.70;99.90;;;;;;6225618;28;20046;-60
2022/06/04 11:55:29;;;;;;;5.50;3.70;;;18.90;99.90;;;;;;6223306;28;20057;-60
2022/06/04 11:58:52;;;;;;;6.95;3.95;;;19.00;99.90;;;;;;6226606;28;20050;-60
2022/06/04 12:01:59;;;;;;;7.43;4.00;;;19.10;99.90;;;;;;6242308;28;20053;-59
2022/06/04 12:05:11;;;;;;;7.80;4.20;;;19.30;99.90;;;;;;6249707;28;20049;-60
2022/06/04 12:08:17;;;;;;;7.03;3.63;;;19.40;99.90;;;;;;6249915;28;20045;-59
2022/06/04 12:11:28;;;;;;;5.60;3.40;;;19.40;99.90;;;;;;6248564;28;20416;-59
2022/06/04 12:14:37;;;;;;;5.53;3.60;;;19.10;99.90;;;;;;6248631;28;20498;-59
2022/06/04 12:17:44;;;;;;;6.47;3.60;;;19.40;99.90;;;;;;6248497;28;20079;-60
2022/06/04 12:24:20;;;;;;;7.60;3.60;;;19.30;99.90;;;;;;6249441;28;20491;-60
2022/06/04 12:27:24;;;;;;;6.78;3.85;;;19.10;99.90;;;;;;6229455;28;20054;-59
2022/06/04 12:30:33;;;;;;;6.65;3.80;;;19.00;99.90;;;;;;6224852;28;20049;-59
2022/06/04 12:33:37;;;;;;;6.25;3.55;;;19.20;99.90;;;;;;6224606;28;20050;-60
2022/06/04 12:36:52;;;;;;;7.20;3.95;;;19.40;99.90;;;;;;6223398;28;20057;-59
2022/06/04 12:39:55;;;;;;;6.20;3.55;;;19.30;99.90;;;;;;6224354;28;20546;-59
2022/06/04 12:43:09;;;;;;;5.93;3.75;;;18.90;99.90;;;;;;6224856;28;20060;-60
2022/06/04 12:46:31;;;;;;;4.75;3.85;;;18.90;99.90;;;;;;6223207;28;20053;-60
2022/06/04 12:49:39;;;;;;;9.52;4.35;;;19.20;99.90;;;;;;6225328;28;20053;-60
2022/06/04 12:52:48;;;;;;;5.57;3.97;;;19.10;99.90;;;;;;6224096;28;20099;-59
2022/06/04 12:55:53;;;;;;;4.75;3.80;;;19.30;99.90;;;;;;6224114;28;20054;-60
2022/06/04 12:58:59;;;;;;;6.70;3.65;;;19.30;99.90;;;;;;6241779;28;20052;-60
2022/06/04 13:02:01;;;;;;;5.60;3.58;;;19.30;99.90;;;;;;6248687;28;20421;-59
2022/06/04 13:05:16;;;;;;;6.68;4.18;;;19.10;99.90;;;;;;6240493;28;20057;-60
2022/06/04 13:08:31;;;;;;;7.65;4.22;;;18.90;99.90;;;;;;6223655;28;20060;-60
2022/06/04 13:11:49;;;;;;;6.82;4.07;;;18.90;99.90;;;;;;6247295;28;20053;-59
2022/06/04 13:14:56;;;;;;;7.07;4.50;;;19.20;99.90;;;;;;6246397;28;20514;-60
2022/06/04 13:17:58;;;;;;;6.65;4.50;;;19.10;99.90;;;;;;6247107;28;20474;-60
2022/06/04 13:21:02;;;;;;;7.68;4.30;;;19.10;99.90;;;;;;6248085;28;20121;-60
2022/06/04 13:24:12;;;;;;;7.57;4.53;;;19.10;99.90;;;;;;6248059;28;20045;-60
2022/06/04 13:27:18;;;;;;;8.82;4.40;;;19.20;99.90;;;;;;6246937;28;20049;-60
2022/06/04 13:30:24;;;;;;;8.70;4.53;;;19.20;99.90;;;;;;6247791;28;20049;-59
2022/06/04 13:33:26;;;;;;;8.20;4.70;;;18.90;99.90;;;;;;6247755;28;20049;-60
2022/06/04 13:36:30;;;;;;;9.07;4.90;;;18.70;99.90;;;;;;6246066;28;20049;-60
2022/06/04 13:39:36;;;;;;;8.55;4.97;;;18.70;99.90;;;;;;6245805;28;20053;-60
2022/06/04 13:42:43;;;;;;;8.10;4.22;;;18.70;99.90;;;;;;6246017;28;20049;-60
2022/06/04 13:45:45;;;;;;;6.07;4.40;;;19.10;99.90;;;;;;6247691;28;20045;-60
2022/06/04 13:48:57;;;;;;;6.40;4.22;;;19.00;99.90;;;;;;6247476;28;20050;-60
2022/06/04 13:52:09;;;;;;;9.32;4.10;;;18.90;99.90;;;;;;6246443;28;20188;-60
2022/06/04 13:55:19;;;;;;;7.10;4.05;;;18.80;99.90;;;;;;6244954;28;20506;-60
2022/06/04 13:58:25;;;;;;;7.40;4.00;;;18.90;99.90;;;;;;6237148;28;20050;-60
2022/06/04 14:01:33;;;;;;;7.90;3.90;;;19.10;99.90;;;;;;6245924;28;20406;-60
2022/06/04 14:08:02;;;;;;;6.53;3.67;;;19.40;99.90;;;;;;6237378;28;20058;-60
2022/06/04 14:11:16;;;;;;;7.78;3.95;;;19.60;99.90;;;;;;6221554;28;20054;-60
2022/06/04 14:14:36;;;;;;;6.80;3.70;;;19.70;99.90;;;;;;6223107;28;20053;-60
2022/06/04 14:18:00;;;;;;;6.00;3.80;;;19.70;99.70;;;;;;6221440;28;20437;-59
2022/06/04 14:21:15;;;;;;;6.38;3.40;;;19.50;99.90;;;;;;6205179;28;20050;-59
2022/06/04 14:24:41;;;;;;;7.32;3.92;;;19.50;99.90;;;;;;6222102;28;20508;-60
2022/06/04 14:27:56;;;;;;;8.75;3.67;;;19.30;99.90;;;;;;6231367;28;20131;-60
2022/06/04 14:31:04;;;;;;;6.32;4.10;;;19.40;99.90;;;;;;6245988;28;20433;-60
2022/06/04 14:34:09;;;;;;;8.40;4.10;;;19.30;99.90;;;;;;6246787;28;20045;-60
2022/06/04 14:37:11;;;;;;;9.18;3.83;;;19.00;99.90;;;;;;6246585;28;20508;-60
2022/06/04 14:40:15;;;;;;;7.10;4.20;;;19.00;99.90;;;;;;6245508;28;20049;-60
2022/06/04 14:43:54;;;;;;;14.02;4.15;;;19.20;99.90;;;;;;6246695;28;20052;-60
2022/06/04 14:47:25;;;;;;;6.05;3.58;;;19.40;99.90;;;;;;6244944;28;20485;-60
2022/06/04 14:50:43;;;;;;;7.65;3.95;;;19.50;99.90;;;;;;6231450;28;20068;-60
2022/06/04 14:53:46;;;;;;;8.68;4.28;;;19.50;99.20;;;;;;6246314;28;20053;-60
2022/06/04 14:56:59;;;;;;;6.15;4.00;;;19.50;99.70;;;;;;6249519;28;20551;-60
2022/06/04 15:00:10;;;;;;;6.80;3.63;;;19.60;99.90;;;;;;6246282;28;20057;-60
2022/06/04 15:03:49;;;;;;;8.82;4.07;;;19.70;99.90;;;;;;6239651;28;20510;-60
2022/06/04 15:07:17;;;;;;;9.02;4.03;;;19.20;99.90;;;;;;6213784;28;20186;-60
2022/06/04 15:10:27;;;;;;;8.07;4.32;;;19.10;99.90;;;;;;6250759;28;20076;-60
2022/06/04 15:13:37;;;;;;;10.07;4.50;;;18.90;99.90;;;;;;6250872;28;20235;-59
2022/06/04 15:16:53;;;;;;;8.88;4.90;;;18.90;99.90;;;;;;6249522;28;20057;-60
2022/06/04 15:20:00;;;;;;;8.95;4.38;;;18.90;99.90;;;;;;6250961;28;20060;-60
2022/06/04 15:23:12;;;;;;;11.13;5.80;;;18.90;99.90;;;;;;6249162;28;20053;-60
2022/06/04 15:26:24;;;;;;;6.72;4.28;;;18.90;99.90;;;;;;6249440;28;20049;-59
2022/06/04 15:36:26;;;;;;;8.30;3.63;;;18.50;99.90;;;;;;6238548;28;20520;-60
2022/06/04 15:39:34;;;;;;;7.22;4.00;;;18.60;99.90;;;;;;6225200;28;20054;-60
2022/06/04 15:42:48;;;;;;;10.63;6.90;;;18.40;99.90;;;;;;6226013;28;20045;-60
2022/06/04 15:46:00;;;;;;;7.78;3.95;;;18.40;99.90;;;;;;6225575;28;20049;-60
2022/06/04 15:49:15;;;;;;;6.47;4.07;;;18.50;99.90;;;;;;6224684;28;20053;-59
2022/06/04 15:55:59;;;;;;;8.93;4.45;;;18.20;99.90;;;;;;6225628;28;20069;-60
2022/06/04 15:59:11;;;;;;;9.30;3.80;;;18.10;99.90;;;;;;6242726;28;20444;-60
2022/06/04 16:02:16;;;;;;;8.48;4.00;;;17.90;99.90;;;;;;6249704;28;20516;-59
2022/06/04 16:05:27;;;;;;;9.20;3.53;;;17.90;99.90;;;;;;6248263;28;20096;-60
2022/06/04 16:08:30;;;;;;;8.15;5.47;;;18.00;99.90;;;;;;6249121;28;20422;-60
2022/06/04 16:11:51;;;;;;;9.50;3.77;;;18.10;99.90;;;;;;6244884;28;20046;-60
2022/06/04 16:15:05;;;;;;;8.27;4.05;;;18.10;99.90;;;;;;6224680;28;20049;-59
2022/06/04 16:18:21;;;;;;;9.43;4.15;;;18.10;99.90;;;;;;6225932;28;20054;-58
2022/06/04 16:21:33;;;;;;;10.57;3.65;;;18.10;99.90;;;;;;6225060;28;20050;-60
2022/06/04 16:24:46;;;;;;;7.63;3.50;;;18.00;99.90;;;;;;6223890;28;20057;-60
2022/06/04 16:28:03;;;;;;;10.68;4.30;;;17.90;99.90;;;;;;6224374;28;20057;-60
2022/06/04 16:31:30;;;;;;;8.52;4.72;;;17.80;99.90;;;;;;6249161;28;20050;-60
2022/06/04 16:35:03;;;;;;;6.95;5.15;;;17.70;99.90;;;;;;6240978;28;20049;-60
2022/06/04 16:38:18;;;;;;;10.30;4.68;;;17.60;99.90;;;;;;6223112;28;20050;-60
2022/06/04 16:44:52;;;;;;;12.15;5.47;;;17.40;99.90;;;;;;6224520;28;20049;-60
2022/06/04 16:47:56;;;;;;;7.95;4.80;;;17.40;99.90;;;;;;6223533;28;20053;-60